createdAt,value
2022-12-10T00:00:37.268Z,27.70
2022-12-10T00:03:05.031Z,27.27
2022-12-10T00:05:34.715Z,19.40
2022-12-10T00:08:02.070Z,19.62
2022-12-10T00:10:29.755Z,19.77
2022-12-10T00:12:57.092Z,22.08
2022-12-10T00:15:24.462Z,25.75
2022-12-10T00:17:52.054Z,23.52
2022-12-10T00:20:19.555Z,19.10
2022-12-10T00:22:46.883Z,22.95
2022-12-10T00:25:14.528Z,19.73
2022-12-10T00:27:41.948Z,21.12
2022-12-10T00:30:10.050Z,20.23
2022-12-10T00:32:38.126Z,20.58
2022-12-10T00:35:05.816Z,21.10
2022-12-10T00:37:33.880Z,20.75
2022-12-10T00:40:01.611Z,23.15
2022-12-10T00:42:28.972Z,23.12
2022-12-10T00:44:56.325Z,19.10
2022-12-10T00:47:24.230Z,18.80
2022-12-10T00:49:51.564Z,19.00
2022-12-10T00:52:18.902Z,18.12
2022-12-10T00:54:46.509Z,17.25
2022-12-10T00:57:13.858Z,17.23
2022-12-10T00:59:41.190Z,16.98
2022-12-10T01:02:08.795Z,18.70
2022-12-10T01:04:36.233Z,17.35
2022-12-10T01:07:06.841Z,16.10
2022-12-10T01:09:38.707Z,17.12
2022-12-10T01:12:06.414Z,16.95
2022-12-10T01:14:34.615Z,16.52
2022-12-10T01:17:04.100Z,14.20
2022-12-10T01:19:32.087Z,15.48
2022-12-10T01:22:02.724Z,14.10
2022-12-10T01:24:30.494Z,14.80
2022-12-10T01:26:57.890Z,14.57
2022-12-10T01:29:25.448Z,15.15
2022-12-10T01:31:53.811Z,14.32
2022-12-10T01:34:21.279Z,15.13
2022-12-10T01:36:53.253Z,15.30
2022-12-10T01:39:21.686Z,15.93
2022-12-10T01:41:56.977Z,16.25
2022-12-10T01:44:24.401Z,14.30
2022-12-10T01:46:56.136Z,14.30
2022-12-10T01:49:28.169Z,14.65
2022-12-10T01:51:56.127Z,13.50
2022-12-10T01:54:27.045Z,13.75
2022-12-10T01:56:59.548Z,14.07
2022-12-10T01:59:27.566Z,12.60
2022-12-10T02:02:26.136Z,12.23
2022-12-10T02:05:22.667Z,11.63
2022-12-10T02:08:00.584Z,10.93
2022-12-10T02:10:47.225Z,8.98
2022-12-10T02:13:25.977Z,7.93
2022-12-10T02:16:00.136Z,8.20
2022-12-10T02:18:52.665Z,8.57
2022-12-10T02:21:30.016Z,8.17
2022-12-10T02:24:00.564Z,8.50
2022-12-10T02:26:49.423Z,8.53
2022-12-10T02:29:26.065Z,8.20
2022-12-10T02:32:03.390Z,9.33
2022-12-10T02:34:34.548Z,10.03
2022-12-10T02:37:06.116Z,9.13
2022-12-10T02:39:40.317Z,9.53
2022-12-10T02:42:08.067Z,9.97
2022-12-10T02:44:36.634Z,10.27
2022-12-10T02:47:04.325Z,10.23
2022-12-10T02:49:32.343Z,9.43
2022-12-10T02:52:00.817Z,10.67
2022-12-10T02:54:39.713Z,9.13
2022-12-10T02:57:32.234Z,9.93
2022-12-10T03:00:07.423Z,9.13
2022-12-10T03:05:45.744Z,8.83
2022-12-10T03:08:18.006Z,9.00
2022-12-10T03:11:13.644Z,8.37
2022-12-10T03:14:23.595Z,7.87
2022-12-10T03:16:55.137Z,8.23
2022-12-10T03:19:24.770Z,8.93
2022-12-10T03:21:52.087Z,7.43
2022-12-10T03:24:19.428Z,6.67
2022-12-10T03:26:48.148Z,7.87
2022-12-10T03:29:18.508Z,7.00
2022-12-10T03:31:45.810Z,7.67
2022-12-10T03:34:13.617Z,5.90
2022-12-10T03:36:40.959Z,6.83
2022-12-10T03:39:08.545Z,5.97
2022-12-10T03:41:36.158Z,5.93
2022-12-10T03:44:03.499Z,6.83
2022-12-10T03:46:31.384Z,6.83
2022-12-10T03:48:59.423Z,7.20
2022-12-10T03:51:26.818Z,6.87
2022-12-10T03:53:54.276Z,7.13
2022-12-10T03:56:21.967Z,8.33
2022-12-10T03:58:49.295Z,8.37
2022-12-10T04:01:16.969Z,7.80
2022-12-10T04:03:44.739Z,8.47
2022-12-10T04:06:16.002Z,8.90
2022-12-10T04:08:43.388Z,8.93
2022-12-10T04:11:11.459Z,8.70
2022-12-10T04:13:57.528Z,8.43
2022-12-10T04:16:28.247Z,9.70
2022-12-10T04:19:01.378Z,9.83
2022-12-10T04:21:48.691Z,9.57
2022-12-10T04:24:35.092Z,9.77
2022-12-10T04:27:08.636Z,8.90
2022-12-10T04:29:35.978Z,10.40
2022-12-10T04:32:03.613Z,10.30
2022-12-10T04:34:31.006Z,10.73
2022-12-10T04:36:59.421Z,10.93
2022-12-10T04:39:26.993Z,11.57
2022-12-10T04:41:54.299Z,11.47
2022-12-10T04:44:21.668Z,11.83
2022-12-10T04:46:49.294Z,11.07
2022-12-10T04:49:16.912Z,12.03
2022-12-10T04:51:44.428Z,12.00
2022-12-10T04:54:12.495Z,12.20
2022-12-10T04:56:39.799Z,12.23
2022-12-10T04:59:07.168Z,12.47
2022-12-10T05:01:34.844Z,11.57
2022-12-10T05:04:03.553Z,12.93
2022-12-10T05:06:31.114Z,10.97
2022-12-10T05:08:58.807Z,11.57
2022-12-10T05:11:27.211Z,11.10
2022-12-10T05:13:54.844Z,10.33
2022-12-10T05:16:23.043Z,10.27
2022-12-10T05:18:50.983Z,10.10
2022-12-10T05:21:19.324Z,10.33
2022-12-10T05:23:50.679Z,10.13
2022-12-10T05:26:19.744Z,10.27
2022-12-10T05:28:52.272Z,10.27
2022-12-10T05:31:39.203Z,9.00
2022-12-10T05:34:09.124Z,9.80
2022-12-10T05:36:36.603Z,10.03
2022-12-10T05:39:04.344Z,9.93
2022-12-10T05:41:34.302Z,11.50
2022-12-10T05:44:02.062Z,10.63
2022-12-10T05:46:30.935Z,9.23
2022-12-10T05:48:58.653Z,9.50
2022-12-10T05:51:28.520Z,9.70
2022-12-10T05:53:56.769Z,9.63
2022-12-10T05:56:24.783Z,10.97
2022-12-10T05:58:55.637Z,11.47
2022-12-10T06:01:24.871Z,11.80
2022-12-10T06:03:53.368Z,12.10
2022-12-10T06:06:24.675Z,12.40
2022-12-10T06:08:52.432Z,12.97
2022-12-10T06:11:20.499Z,13.27
2022-12-10T06:13:51.737Z,15.13
2022-12-10T06:16:22.295Z,15.13
2022-12-10T06:18:49.727Z,16.63
2022-12-10T06:21:17.283Z,15.27
2022-12-10T06:23:44.956Z,16.00
2022-12-10T06:26:14.249Z,14.13
2022-12-10T06:28:41.840Z,14.93
2022-12-10T06:31:09.465Z,22.60
2022-12-10T06:33:36.933Z,15.53
2022-12-10T06:36:06.034Z,16.10
2022-12-10T06:38:34.281Z,16.90
2022-12-10T06:41:01.802Z,15.30
2022-12-10T06:43:30.378Z,14.03
2022-12-10T06:45:58.111Z,15.47
2022-12-10T06:48:25.527Z,15.57
2022-12-10T06:50:52.859Z,16.27
2022-12-10T06:53:20.726Z,14.60
2022-12-10T06:55:48.080Z,15.73
2022-12-10T06:58:15.395Z,16.10
2022-12-10T07:00:42.964Z,17.60
2022-12-10T07:03:10.327Z,17.03
2022-12-10T07:05:37.663Z,17.00
2022-12-10T07:08:05.486Z,20.23
2022-12-10T07:10:32.908Z,16.27
2022-12-10T07:13:01.293Z,18.07
2022-12-10T07:15:29.333Z,17.97
2022-12-10T07:17:56.672Z,18.57
2022-12-10T07:20:24.027Z,16.87
2022-12-10T07:22:51.661Z,17.23
2022-12-10T07:25:19.000Z,16.10
2022-12-10T07:27:46.316Z,17.93
2022-12-10T07:30:14.221Z,16.77
2022-12-10T07:32:41.566Z,17.20
2022-12-10T07:35:09.500Z,17.00
2022-12-10T07:37:37.079Z,18.70
2022-12-10T07:40:05.158Z,17.43
2022-12-10T07:42:32.479Z,16.67
2022-12-10T07:45:00.176Z,15.67
2022-12-10T07:47:27.525Z,15.00
2022-12-10T07:49:54.908Z,16.03
2022-12-10T07:52:22.516Z,16.50
2022-12-10T07:54:49.891Z,17.13
2022-12-10T07:57:17.208Z,15.17
2022-12-10T07:59:44.841Z,16.37
2022-12-10T08:02:12.171Z,15.03
2022-12-10T08:04:40.740Z,15.30
2022-12-10T08:07:08.892Z,13.77
2022-12-10T08:09:36.235Z,14.60
2022-12-10T08:12:03.844Z,13.20
2022-12-10T08:14:31.526Z,14.47
2022-12-10T08:16:58.821Z,13.90
2022-12-10T08:19:31.466Z,14.60
2022-12-10T08:21:59.401Z,14.30
2022-12-10T08:24:27.111Z,14.57
2022-12-10T08:26:54.447Z,14.70
2022-12-10T08:29:21.928Z,16.43
2022-12-10T08:31:49.823Z,16.40
2022-12-10T08:34:18.215Z,16.23
2022-12-10T08:36:45.686Z,16.20
2022-12-10T08:39:17.723Z,16.33
2022-12-10T08:41:45.620Z,16.90
2022-12-10T08:44:13.895Z,16.53
2022-12-10T08:46:41.285Z,16.07
2022-12-10T08:49:08.592Z,16.90
2022-12-10T08:51:36.221Z,16.23
2022-12-10T08:54:03.605Z,17.97
2022-12-10T08:56:31.896Z,19.13
2022-12-10T08:58:59.517Z,20.70
2022-12-10T09:01:27.100Z,22.47
2022-12-10T09:03:55.079Z,23.33
2022-12-10T09:06:24.931Z,23.50
2022-12-10T09:08:52.412Z,23.33
2022-12-10T09:11:22.055Z,24.20
2022-12-10T09:13:50.760Z,23.83
2022-12-10T09:16:18.361Z,24.47
2022-12-10T09:18:45.730Z,25.37
2022-12-10T09:21:16.073Z,27.67
2022-12-10T09:23:43.657Z,27.73
2022-12-10T09:26:12.667Z,25.77
2022-12-10T09:28:40.435Z,24.20
2022-12-10T09:31:14.188Z,25.30
2022-12-10T09:33:43.892Z,26.33
2022-12-10T09:36:11.699Z,25.37
2022-12-10T09:38:40.162Z,27.90
2022-12-10T09:41:23.224Z,27.60
2022-12-10T09:44:08.235Z,28.77
2022-12-10T09:46:41.705Z,28.53
2022-12-10T09:49:17.701Z,28.93
2022-12-10T09:51:45.335Z,29.73
2022-12-10T09:54:29.066Z,28.37
2022-12-10T09:56:56.716Z,29.70
2022-12-10T09:59:35.833Z,29.00
2022-12-10T10:02:22.252Z,27.20
2022-12-10T10:07:24.877Z,27.60
2022-12-10T10:09:56.018Z,28.70
2022-12-10T10:12:23.431Z,27.67
2022-12-10T10:14:50.835Z,29.23
2022-12-10T10:17:28.424Z,28.80
2022-12-10T10:19:58.827Z,28.17
2022-12-10T10:22:27.548Z,27.53
2022-12-10T10:24:55.001Z,27.30
2022-12-10T10:27:30.039Z,26.57
2022-12-10T10:29:58.715Z,28.93
2022-12-10T10:32:41.703Z,27.87
2022-12-10T10:35:19.693Z,27.17
2022-12-10T10:37:47.108Z,26.77
2022-12-10T10:40:34.610Z,24.10
2022-12-10T10:43:02.026Z,23.83
2022-12-10T10:45:36.566Z,21.23
2022-12-10T10:48:24.724Z,20.83
2022-12-10T10:51:16.992Z,21.23
2022-12-10T10:53:57.022Z,21.60
2022-12-10T10:56:43.720Z,23.20
2022-12-10T11:01:49.390Z,22.40
2022-12-10T11:04:17.616Z,23.70
2022-12-10T11:06:45.153Z,24.27
2022-12-10T11:09:20.986Z,24.00
2022-12-10T11:11:51.986Z,24.93
2022-12-10T11:14:24.530Z,26.63
2022-12-10T11:16:52.300Z,21.47
2022-12-10T11:19:22.305Z,20.83
2022-12-10T11:21:50.416Z,19.97
2022-12-10T11:24:19.218Z,21.20
2022-12-10T11:27:04.420Z,22.93
2022-12-10T11:30:20.790Z,21.90
2022-12-10T11:33:27.345Z,23.23
2022-12-10T11:35:58.707Z,21.37
2022-12-10T11:38:35.867Z,23.03
2022-12-10T11:41:24.109Z,26.33
2022-12-10T11:44:01.225Z,27.10
2022-12-10T11:46:57.680Z,28.00
2022-12-10T11:50:01.811Z,27.93
2022-12-10T11:53:05.435Z,29.80
2022-12-10T11:56:00.955Z,25.33
2022-12-10T11:58:44.234Z,25.73
2022-12-10T12:01:41.089Z,26.03
2022-12-10T12:04:34.663Z,25.73
2022-12-10T12:07:15.533Z,27.13
2022-12-10T12:09:59.643Z,25.67
2022-12-10T12:12:43.829Z,25.40
2022-12-10T12:15:23.313Z,24.73
2022-12-10T12:17:58.531Z,24.27
2022-12-10T12:20:38.546Z,24.03
2022-12-10T12:23:46.354Z,25.93
2022-12-10T12:26:22.549Z,27.20
2022-12-10T12:29:20.602Z,26.55
2022-12-10T12:32:09.644Z,25.20
2022-12-10T12:34:51.211Z,25.47
2022-12-10T12:37:23.326Z,26.70
2022-12-10T12:40:03.584Z,28.83
2022-12-10T12:43:04.466Z,28.27
2022-12-10T12:45:39.586Z,31.17
2022-12-10T12:48:29.468Z,27.43
2022-12-10T12:51:18.064Z,29.80
2022-12-10T12:53:45.700Z,26.97
2022-12-10T12:56:25.793Z,27.07
2022-12-10T12:59:13.718Z,28.20
2022-12-10T13:02:00.002Z,27.43
2022-12-10T13:04:27.632Z,29.60
2022-12-10T13:07:11.029Z,27.67
2022-12-10T13:09:52.134Z,30.63
2022-12-10T13:12:31.028Z,29.40
2022-12-10T13:15:23.657Z,30.63
2022-12-10T13:18:04.830Z,30.90
2022-12-10T13:20:40.690Z,33.30
2022-12-10T13:23:26.249Z,32.60
2022-12-10T13:25:56.788Z,33.90
2022-12-10T13:28:28.532Z,31.80
2022-12-10T13:31:17.560Z,32.10
2022-12-10T13:33:54.189Z,31.80
2022-12-10T13:36:34.100Z,32.97
2022-12-10T13:39:04.325Z,33.37
2022-12-10T13:41:58.943Z,35.87
2022-12-10T13:44:35.471Z,34.37
2022-12-10T13:47:32.834Z,35.25
2022-12-10T13:50:01.134Z,35.87
2022-12-10T13:53:09.951Z,37.57
2022-12-10T13:56:10.025Z,36.93
2022-12-10T13:58:37.543Z,37.77
2022-12-10T14:01:33.022Z,36.10
2022-12-10T14:04:34.483Z,33.58
2022-12-10T14:07:01.871Z,35.07
2022-12-10T14:09:35.842Z,35.67
2022-12-10T14:12:06.916Z,36.60
2022-12-10T14:14:36.151Z,33.70
2022-12-10T14:17:13.103Z,35.27
2022-12-10T14:19:40.748Z,36.67
2022-12-10T14:22:08.535Z,34.10
2022-12-10T14:24:41.046Z,34.27
2022-12-10T14:27:18.563Z,35.47
2022-12-10T14:29:50.484Z,35.33
2022-12-10T14:32:20.867Z,34.93
2022-12-10T14:34:53.756Z,34.07
2022-12-10T14:37:23.185Z,33.73
2022-12-10T14:39:50.504Z,32.10
2022-12-10T14:42:17.854Z,31.83
2022-12-10T14:44:46.264Z,32.30
2022-12-10T14:47:18.316Z,32.60
2022-12-10T14:49:48.190Z,35.03
2022-12-10T14:52:32.799Z,33.47
2022-12-10T14:55:00.411Z,35.03
2022-12-10T14:57:32.212Z,34.63
2022-12-10T15:00:12.302Z,35.47
2022-12-10T15:02:41.486Z,34.90
2022-12-10T15:05:14.289Z,33.93
2022-12-10T15:07:41.757Z,36.70
2022-12-10T15:10:17.991Z,36.33
2022-12-10T15:12:47.076Z,34.33
2022-12-10T15:15:29.158Z,36.63
2022-12-10T15:18:02.557Z,34.03
2022-12-10T15:20:38.859Z,32.37
2022-12-10T15:23:17.968Z,31.12
2022-12-10T15:25:47.890Z,31.70
2022-12-10T15:28:25.552Z,28.90
2022-12-10T15:30:55.614Z,31.53
2022-12-10T15:33:25.231Z,29.37
2022-12-10T15:35:55.646Z,30.20
2022-12-10T15:38:23.639Z,30.03
2022-12-10T15:40:50.943Z,34.33
2022-12-10T15:43:25.680Z,29.30
2022-12-10T15:45:53.044Z,30.53
2022-12-10T15:48:20.893Z,30.97
2022-12-10T15:50:49.646Z,29.13
2022-12-10T15:53:32.253Z,30.23
2022-12-10T15:56:03.802Z,31.83
2022-12-10T15:58:31.293Z,31.57
2022-12-10T16:00:58.681Z,30.37
2022-12-10T16:03:26.355Z,31.23
2022-12-10T16:05:53.761Z,33.53
2022-12-10T16:08:25.489Z,34.20
2022-12-10T16:10:53.998Z,33.37
2022-12-10T16:13:29.402Z,33.00
2022-12-10T16:15:59.087Z,35.07
2022-12-10T16:18:30.609Z,38.00
2022-12-10T16:21:01.233Z,35.50
2022-12-10T16:23:28.647Z,34.93
2022-12-10T16:25:56.102Z,33.93
2022-12-10T16:28:24.035Z,33.93
2022-12-10T16:30:52.803Z,34.33
2022-12-10T16:33:20.964Z,33.20
2022-12-10T16:35:48.839Z,34.90
2022-12-10T16:38:16.587Z,33.53
2022-12-10T16:40:44.430Z,34.00
2022-12-10T16:43:16.554Z,33.03
2022-12-10T16:45:44.112Z,32.43
2022-12-10T16:48:12.067Z,30.83
2022-12-10T16:50:39.680Z,30.77
2022-12-10T16:53:22.659Z,31.83
2022-12-10T16:55:50.770Z,33.07
2022-12-10T16:58:18.610Z,30.93
2022-12-10T17:00:48.024Z,29.53
2022-12-10T17:03:23.677Z,29.70
2022-12-10T17:05:52.627Z,31.40
2022-12-10T17:08:20.540Z,30.37
2022-12-10T17:11:06.945Z,31.97
2022-12-10T17:13:35.511Z,27.63
2022-12-10T17:16:04.241Z,31.00
2022-12-10T17:18:31.755Z,29.57
2022-12-10T17:20:59.362Z,29.97
2022-12-10T17:23:29.660Z,30.33
2022-12-10T17:25:59.603Z,30.40
2022-12-10T17:28:27.212Z,29.77
2022-12-10T17:30:54.674Z,27.87
2022-12-10T17:33:22.652Z,28.97
2022-12-10T17:35:51.424Z,30.17
2022-12-10T17:38:23.819Z,26.97
2022-12-10T17:40:52.196Z,27.63
2022-12-10T17:43:19.771Z,26.27
2022-12-10T17:45:47.372Z,27.97
2022-12-10T17:48:16.424Z,25.13
2022-12-10T17:50:45.057Z,26.07
2022-12-10T17:53:15.337Z,25.77
2022-12-10T17:55:48.509Z,25.90
2022-12-10T17:58:16.427Z,25.40
2022-12-10T18:00:44.649Z,25.73
2022-12-10T18:03:12.420Z,25.10
2022-12-10T18:05:40.148Z,24.73
2022-12-10T18:08:07.573Z,24.37
2022-12-10T18:10:35.291Z,24.70
2022-12-10T18:13:02.759Z,23.73
2022-12-10T18:15:30.275Z,24.60
2022-12-10T18:17:59.163Z,22.13
2022-12-10T18:20:29.143Z,22.87
2022-12-10T18:22:56.795Z,22.90
2022-12-10T18:25:24.522Z,23.23
2022-12-10T18:27:52.019Z,22.13
2022-12-10T18:30:21.680Z,22.67
2022-12-10T18:32:49.580Z,21.97
2022-12-10T18:35:16.930Z,22.10
2022-12-10T18:37:44.331Z,21.27
2022-12-10T18:40:17.082Z,20.57
2022-12-10T18:42:47.384Z,22.00
2022-12-10T18:45:15.584Z,20.63
2022-12-10T18:47:43.004Z,23.90
2022-12-10T18:50:21.209Z,23.97
2022-12-10T18:52:48.864Z,21.90
2022-12-10T18:55:16.807Z,21.10
2022-12-10T18:57:46.128Z,21.67
2022-12-10T19:00:23.916Z,20.07
2022-12-10T19:02:51.255Z,21.60
2022-12-10T19:05:19.204Z,20.43
2022-12-10T19:07:46.921Z,21.77
2022-12-10T19:10:17.387Z,20.60
2022-12-10T19:12:44.988Z,21.93
2022-12-10T19:15:13.062Z,22.57
2022-12-10T19:17:41.479Z,24.37
2022-12-10T19:20:19.471Z,21.33
2022-12-10T19:22:46.888Z,23.53
2022-12-10T19:25:14.614Z,21.60
2022-12-10T19:27:42.140Z,23.67
2022-12-10T19:30:17.801Z,25.40
2022-12-10T19:32:46.311Z,25.27
2022-12-10T19:35:15.298Z,23.90
2022-12-10T19:37:44.749Z,24.73
2022-12-10T19:40:27.318Z,23.00
2022-12-10T19:42:54.833Z,25.60
2022-12-10T19:45:22.786Z,24.80
2022-12-10T19:47:54.206Z,23.83
2022-12-10T19:50:22.987Z,24.07
2022-12-10T19:52:50.357Z,23.27
2022-12-10T19:55:18.039Z,23.67
2022-12-10T19:57:45.849Z,24.13
2022-12-10T20:00:24.939Z,25.80
2022-12-10T20:02:53.032Z,25.97
2022-12-10T20:05:20.873Z,22.90
2022-12-10T20:07:48.622Z,24.40
2022-12-10T20:10:27.599Z,22.00
2022-12-10T20:12:55.216Z,22.93
2022-12-10T20:15:23.356Z,21.97
2022-12-10T20:17:50.888Z,22.37
2022-12-10T20:20:22.665Z,22.27
2022-12-10T20:22:50.519Z,23.23
2022-12-10T20:25:18.173Z,20.93
2022-12-10T20:27:45.782Z,20.20
2022-12-10T20:30:23.375Z,21.37
2022-12-10T20:32:51.439Z,21.07
2022-12-10T20:35:19.800Z,21.10
2022-12-10T20:37:47.746Z,22.90
2022-12-10T20:40:35.343Z,21.57
2022-12-10T20:43:03.141Z,20.53
2022-12-10T20:45:30.532Z,22.07
2022-12-10T20:47:57.952Z,23.93
2022-12-10T20:50:25.595Z,21.80
2022-12-10T20:52:53.019Z,21.37
2022-12-10T20:55:20.348Z,21.93
2022-12-10T20:57:48.093Z,20.50
2022-12-10T21:00:16.799Z,19.47
2022-12-10T21:02:44.615Z,20.63
2022-12-10T21:05:13.399Z,19.13
2022-12-10T21:07:41.129Z,18.37
2022-12-10T21:10:28.958Z,20.03
2022-12-10T21:12:56.619Z,18.23
2022-12-10T21:15:24.333Z,19.53
2022-12-10T21:17:51.742Z,18.70
2022-12-10T21:20:21.757Z,19.33
2022-12-10T21:22:52.983Z,19.17
2022-12-10T21:25:20.582Z,18.43
2022-12-10T21:27:48.007Z,18.60
2022-12-10T21:30:15.349Z,19.90
2022-12-10T21:32:43.116Z,19.53
2022-12-10T21:35:10.839Z,20.83
2022-12-10T21:37:38.378Z,18.77
2022-12-10T21:40:06.424Z,17.77
2022-12-10T21:42:52.727Z,18.73
2022-12-10T21:45:20.399Z,18.40
2022-12-10T21:47:47.716Z,17.97
2022-12-10T21:50:15.118Z,19.07
2022-12-10T21:52:44.185Z,20.40
2022-12-10T21:55:11.881Z,19.03
2022-12-10T21:57:39.541Z,19.60
2022-12-10T22:00:09.379Z,18.97
2022-12-10T22:02:39.741Z,17.97
2022-12-10T22:05:09.049Z,17.63
2022-12-10T22:07:37.188Z,16.43
2022-12-10T22:10:05.084Z,17.20
2022-12-10T22:12:32.722Z,17.47
2022-12-10T22:15:00.131Z,16.53
2022-12-10T22:17:27.588Z,17.23
2022-12-10T22:19:55.197Z,15.40
2022-12-10T22:22:22.553Z,13.70
2022-12-10T22:24:49.903Z,14.93
2022-12-10T22:27:17.993Z,15.37
2022-12-10T22:29:45.960Z,15.33
2022-12-10T22:32:13.548Z,14.87
2022-12-10T22:34:45.357Z,15.13
2022-12-10T22:37:13.100Z,14.30
2022-12-10T22:39:40.763Z,14.77
2022-12-10T22:42:08.115Z,15.83
2022-12-10T22:44:35.503Z,15.83
2022-12-10T22:47:03.246Z,17.10
2022-12-10T22:49:35.727Z,15.53
2022-12-10T22:52:06.326Z,17.30
2022-12-10T22:54:33.807Z,16.60
2022-12-10T22:57:01.123Z,17.67
2022-12-10T22:59:28.815Z,17.50
2022-12-10T23:01:58.531Z,17.90
2022-12-10T23:04:25.943Z,16.63
2022-12-10T23:06:53.591Z,17.37
2022-12-10T23:09:21.185Z,18.90
2022-12-10T23:12:07.132Z,19.10
2022-12-10T23:14:34.907Z,18.42
2022-12-10T23:17:02.231Z,18.53
2022-12-10T23:19:29.609Z,19.33
2022-12-10T23:21:57.626Z,18.90
2022-12-10T23:24:24.982Z,20.17
2022-12-10T23:26:52.425Z,19.40
2022-12-10T23:29:20.055Z,17.90
2022-12-10T23:31:47.771Z,19.10
2022-12-10T23:34:15.221Z,19.70
2022-12-10T23:36:42.832Z,19.53
2022-12-10T23:39:10.162Z,19.57
2022-12-10T23:41:37.606Z,19.47
2022-12-10T23:44:05.430Z,18.80
2022-12-10T23:46:32.776Z,18.90
2022-12-10T23:49:00.174Z,19.37
2022-12-10T23:51:27.899Z,19.43
2022-12-10T23:53:55.234Z,20.37
2022-12-10T23:56:22.602Z,18.83
2022-12-10T23:58:50.176Z,20.17
